Time;durP1;ratioP1;P1;durP2;ratioP2;P2;SDS_P1;SDS_P2;PMS_P1;PMS_P2;Temp;Humidity;BMP_temperature;BMP_pressure;BME280_temperature;BME280_humidity;BME280_pressure;Samples;Min_cycle;Max_cycle;Signal;HPM_P1;HPM_P2
2023/04/07 00:01:29;;;;;;;18.27;11.50;;;;;;;;;;4404110;32;317682;-78
2023/04/07 00:03:56;;;;;;;18.30;12.27;;;;;;;;;;4413790;32;317610;-80
2023/04/07 00:06:22;;;;;;;15.67;12.10;;;;;;;;;;4414954;32;318190;-79
2023/04/07 00:08:51;;;;;;;17.43;13.00;;;;;;;;;;4405123;32;318325;-80
2023/04/07 00:11:17;;;;;;;19.13;13.30;;;;;;;;;;4415114;32;318287;-78
2023/04/07 00:13:44;;;;;;;15.00;11.43;;;;;;;;;;4403813;32;318298;-79
2023/04/07 00:16:11;;;;;;;17.87;11.97;;;;;;;;;;4413809;32;318253;-79
2023/04/07 00:18:38;;;;;;;13.40;11.50;;;;;;;;;;4403495;32;318293;-78
2023/04/07 00:21:05;;;;;;;14.23;11.50;;;;;;;;;;4414752;32;318498;-78
2023/04/07 00:23:32;;;;;;;14.93;12.00;;;;;;;;;;4405077;32;318233;-79
2023/04/07 00:26:00;;;;;;;14.30;11.80;;;;;;;;;;4345446;32;318840;-79
2023/04/07 00:28:27;;;;;;;15.33;11.77;;;;;;;;;;4326164;32;318175;-79
2023/04/07 00:30:54;;;;;;;17.03;12.40;;;;;;;;;;4335398;32;318145;-78
2023/04/07 00:33:20;;;;;;;19.77;11.87;;;;;;;;;;4334934;32;318311;-78
2023/04/07 00:35:48;;;;;;;18.77;12.70;;;;;;;;;;4325561;32;318183;-80
2023/04/07 00:38:15;;;;;;;28.40;16.67;;;;;;;;;;4336995;32;318255;-79
2023/04/07 00:40:41;;;;;;;25.10;16.33;;;;;;;;;;4327178;32;318252;-80
2023/04/07 00:43:10;;;;;;;27.27;15.53;;;;;;;;;;4336892;32;318184;-78
2023/04/07 00:45:36;;;;;;;25.33;16.17;;;;;;;;;;4327113;32;318023;-78
2023/04/07 00:48:05;;;;;;;32.03;18.43;;;;;;;;;;4336604;32;318123;-78
2023/04/07 00:50:32;;;;;;;34.23;19.03;;;;;;;;;;4326089;32;317591;-78
2023/04/07 00:53:01;;;;;;;25.50;17.43;;;;;;;;;;4340714;32;318027;-80
2023/04/07 00:55:27;;;;;;;26.67;18.43;;;;;;;;;;4326495;32;318164;-79
2023/04/07 00:57:55;;;;;;;25.83;16.37;;;;;;;;;;4336813;32;317699;-79
2023/04/07 01:00:24;;;;;;;30.20;16.57;;;;;;;;;;4336613;32;317657;-79
2023/04/07 01:02:58;;;;;;;26.00;15.17;;;;;;;;;;4323269;32;389927;-78
2023/04/07 01:05:35;;;;;;;24.93;16.40;;;;;;;;;;4329244;32;318518;-79
2023/04/07 01:08:08;;;;;;;23.20;15.73;;;;;;;;;;4331148;32;317382;-80
2023/04/07 01:10:52;;;;;;;19.57;13.50;;;;;;;;;;4318292;32;317431;-79
2023/04/07 01:13:25;;;;;;;21.53;14.13;;;;;;;;;;4336572;32;317755;-79
2023/04/07 01:15:56;;;;;;;17.37;12.33;;;;;;;;;;4322724;32;417283;-79
2023/04/07 01:18:27;;;;;;;21.20;14.47;;;;;;;;;;4336296;32;317538;-80
2023/04/07 01:21:00;;;;;;;27.17;14.20;;;;;;;;;;4322986;32;417535;-80
2023/04/07 01:23:55;;;;;;;23.27;14.13;;;;;;;;;;4325944;32;318573;-80
2023/04/07 01:26:26;;;;;;;24.50;14.13;;;;;;;;;;4335348;32;318177;-78
2023/04/07 01:29:36;;;;;;;22.53;14.07;;;;;;;;;;4321712;32;418453;-78
2023/04/07 01:32:07;;;;;;;19.63;14.00;;;;;;;;;;4322094;32;418637;-80
2023/04/07 01:34:35;;;;;;;18.73;13.97;;;;;;;;;;4326416;32;317577;-79
2023/04/07 01:37:02;;;;;;;24.80;14.57;;;;;;;;;;4323556;32;317728;-79
2023/04/07 01:39:30;;;;;;;19.67;13.20;;;;;;;;;;4310628;32;317509;-78
2023/04/07 01:41:58;;;;;;;21.30;12.97;;;;;;;;;;4321551;32;317804;-79
2023/04/07 01:44:26;;;;;;;18.70;13.37;;;;;;;;;;4320636;32;317717;-79
2023/04/07 01:46:55;;;;;;;18.10;12.73;;;;;;;;;;4308837;32;418737;-79
2023/04/07 01:49:25;;;;;;;19.67;13.17;;;;;;;;;;4321282;32;318682;-77
2023/04/07 01:51:52;;;;;;;17.50;12.63;;;;;;;;;;4367067;32;418898;-80
2023/04/07 01:54:20;;;;;;;16.87;12.23;;;;;;;;;;4413595;32;318372;-80
2023/04/07 01:56:46;;;;;;;18.70;13.37;;;;;;;;;;4403413;32;318426;-80
2023/04/07 01:59:13;;;;;;;21.93;13.83;;;;;;;;;;4411607;32;317841;-80
2023/04/07 02:01:40;;;;;;;22.33;13.83;;;;;;;;;;4402169;32;317816;-80
2023/04/07 02:04:12;;;;;;;19.07;13.73;;;;;;;;;;4411870;32;317590;-80
2023/04/07 02:06:45;;;;;;;21.43;15.63;;;;;;;;;;4402313;32;318125;-80
2023/04/07 02:09:15;;;;;;;19.60;14.93;;;;;;;;;;4412175;32;317445;-79
2023/04/07 02:11:44;;;;;;;21.77;15.60;;;;;;;;;;4403356;32;318879;-80
2023/04/07 02:14:12;;;;;;;22.73;15.27;;;;;;;;;;4413204;32;317705;-79
2023/04/07 02:16:42;;;;;;;20.33;15.30;;;;;;;;;;4403196;32;318379;-80
2023/04/07 02:19:09;;;;;;;24.37;15.73;;;;;;;;;;4411735;32;318474;-79
2023/04/07 02:21:37;;;;;;;27.43;18.77;;;;;;;;;;4402031;32;317578;-78
2023/04/07 02:24:08;;;;;;;22.47;15.47;;;;;;;;;;4404512;32;318292;-79
2023/04/07 02:26:35;;;;;;;20.87;15.40;;;;;;;;;;4326033;32;318243;-79
2023/04/07 02:29:02;;;;;;;19.63;14.27;;;;;;;;;;4326939;32;318293;-79
2023/04/07 02:31:29;;;;;;;23.37;16.60;;;;;;;;;;4316758;32;318567;-79
2023/04/07 02:33:56;;;;;;;31.10;19.00;;;;;;;;;;4335644;32;318170;-79
2023/04/07 02:36:22;;;;;;;33.73;21.43;;;;;;;;;;4327219;32;317860;-79
2023/04/07 02:38:49;;;;;;;35.77;21.90;;;;;;;;;;4310366;32;318141;-80
2023/04/07 02:41:17;;;;;;;34.07;22.87;;;;;;;;;;4320517;32;318247;-79
2023/04/07 02:43:44;;;;;;;46.37;27.07;;;;;;;;;;4311697;32;318103;-78
2023/04/07 02:46:11;;;;;;;46.43;29.63;;;;;;;;;;4321494;32;318132;-78
2023/04/07 02:48:38;;;;;;;45.53;27.73;;;;;;;;;;4333290;32;318312;-78
2023/04/07 02:51:05;;;;;;;48.63;25.47;;;;;;;;;;4350065;32;317146;-78
2023/04/07 02:53:32;;;;;;;34.03;21.83;;;;;;;;;;4332777;32;318240;-79
2023/04/07 02:55:58;;;;;;;30.80;20.10;;;;;;;;;;4338561;32;318136;-78
2023/04/07 02:58:27;;;;;;;29.03;18.07;;;;;;;;;;4329329;32;318371;-79
2023/04/07 03:00:54;;;;;;;28.70;18.40;;;;;;;;;;4338184;32;317715;-79
2023/04/07 03:03:21;;;;;;;21.20;16.73;;;;;;;;;;4337943;32;317638;-79
2023/04/07 03:05:47;;;;;;;32.27;20.40;;;;;;;;;;4325441;32;318361;-78
2023/04/07 03:08:15;;;;;;;38.47;22.87;;;;;;;;;;4337294;32;318318;-80
2023/04/07 03:10:42;;;;;;;35.03;22.17;;;;;;;;;;4320336;32;318148;-80
2023/04/07 03:13:11;;;;;;;35.17;22.30;;;;;;;;;;4336807;32;318272;-80
2023/04/07 03:15:39;;;;;;;46.33;28.23;;;;;;;;;;4326938;32;326355;-79
2023/04/07 03:18:06;;;;;;;48.97;29.30;;;;;;;;;;4335810;32;317795;-80
2023/04/07 03:20:33;;;;;;;60.80;34.67;;;;;;;;;;4328090;32;318340;-81
2023/04/07 03:22:59;;;;;;;50.40;28.10;;;;;;;;;;4338017;32;318475;-80
2023/04/07 03:25:26;;;;;;;55.57;30.83;;;;;;;;;;4318748;32;318543;-80
2023/04/07 03:27:53;;;;;;;96.07;46.73;;;;;;;;;;4321392;32;317749;-78
2023/04/07 03:30:20;;;;;;;53.93;31.40;;;;;;;;;;4323072;32;318414;-78
2023/04/07 03:32:48;;;;;;;32.03;23.50;;;;;;;;;;4327362;32;318439;-79
2023/04/07 03:35:15;;;;;;;31.27;20.20;;;;;;;;;;4337080;32;335265;-79
2023/04/07 03:37:42;;;;;;;31.23;21.10;;;;;;;;;;4328090;32;318690;-78
2023/04/07 03:40:09;;;;;;;34.47;21.87;;;;;;;;;;4337915;32;318413;-79
2023/04/07 03:42:36;;;;;;;31.37;21.23;;;;;;;;;;4327757;32;318645;-78
2023/04/07 03:45:03;;;;;;;34.10;20.37;;;;;;;;;;4337176;32;318816;-79
2023/04/07 03:47:29;;;;;;;31.83;19.37;;;;;;;;;;4327327;32;318499;-78
2023/04/07 03:49:57;;;;;;;29.30;19.07;;;;;;;;;;4336239;32;318564;-79
2023/04/07 03:52:24;;;;;;;32.50;21.80;;;;;;;;;;4336469;32;317814;-79
2023/04/07 03:54:51;;;;;;;35.67;18.77;;;;;;;;;;4314680;32;419283;-79
2023/04/07 03:57:18;;;;;;;24.30;17.37;;;;;;;;;;4337015;32;317700;-81
2023/04/07 03:59:44;;;;;;;29.50;18.30;;;;;;;;;;4327420;32;318605;-79
2023/04/07 04:02:11;;;;;;;30.67;19.63;;;;;;;;;;4335760;32;318445;-79
2023/04/07 04:04:38;;;;;;;30.97;17.57;;;;;;;;;;4326398;32;317927;-79
2023/04/07 04:07:06;;;;;;;31.23;16.40;;;;;;;;;;4336494;32;318350;-78
2023/04/07 04:09:33;;;;;;;31.40;18.67;;;;;;;;;;4326362;32;318306;-80
2023/04/07 04:12:00;;;;;;;33.50;21.87;;;;;;;;;;4337432;32;317714;-79
2023/04/07 04:14:27;;;;;;;43.70;23.73;;;;;;;;;;4325106;32;318286;-78
2023/04/07 04:16:54;;;;;;;29.27;20.03;;;;;;;;;;4336980;32;317854;-79
2023/04/07 04:19:21;;;;;;;27.73;15.97;;;;;;;;;;4337312;32;318839;-80
2023/04/07 04:21:48;;;;;;;28.13;15.37;;;;;;;;;;4327279;32;318356;-79
2023/04/07 04:24:16;;;;;;;33.03;20.60;;;;;;;;;;4337123;32;318013;-79
2023/04/07 04:26:43;;;;;;;32.37;18.57;;;;;;;;;;4327441;32;318292;-79
2023/04/07 04:29:10;;;;;;;56.00;27.43;;;;;;;;;;4336942;32;318341;-78
2023/04/07 04:31:36;;;;;;;58.50;29.87;;;;;;;;;;4325717;32;318498;-79
2023/04/07 04:34:03;;;;;;;82.13;39.87;;;;;;;;;;4335656;32;318405;-79
2023/04/07 04:36:30;;;;;;;155.47;55.20;;;;;;;;;;4324258;32;339099;-78
2023/04/07 04:38:57;;;;;;;230.07;74.47;;;;;;;;;;4336853;32;318690;-78
2023/04/07 04:41:25;;;;;;;215.23;78.83;;;;;;;;;;4336538;32;319169;-79
2023/04/07 04:43:56;;;;;;;199.50;72.90;;;;;;;;;;4318083;32;419786;-79
2023/04/07 04:46:22;;;;;;;135.67;52.97;;;;;;;;;;4336020;32;318892;-78
2023/04/07 04:48:50;;;;;;;102.60;45.00;;;;;;;;;;4325275;32;319535;-79
2023/04/07 04:51:17;;;;;;;73.67;36.73;;;;;;;;;;4334681;32;318956;-78
2023/04/07 04:53:44;;;;;;;53.23;28.17;;;;;;;;;;4325511;32;317887;-79
2023/04/07 04:56:11;;;;;;;43.63;27.13;;;;;;;;;;4335259;32;318390;-79
2023/04/07 04:58:40;;;;;;;47.17;29.23;;;;;;;;;;4319150;32;318154;-79
2023/04/07 05:01:07;;;;;;;65.03;32.50;;;;;;;;;;4333734;32;317604;-79
2023/04/07 05:03:34;;;;;;;66.63;34.80;;;;;;;;;;4325269;32;320318;-80
2023/04/07 05:06:01;;;;;;;72.30;38.27;;;;;;;;;;4336019;32;318347;-79
2023/04/07 05:08:27;;;;;;;71.97;39.80;;;;;;;;;;4325931;32;318740;-80
2023/04/07 05:10:55;;;;;;;75.80;40.03;;;;;;;;;;4334553;32;318270;-79
2023/04/07 05:13:21;;;;;;;63.60;34.47;;;;;;;;;;4334731;32;318641;-80
2023/04/07 05:15:50;;;;;;;51.63;32.10;;;;;;;;;;4324115;32;318345;-79
2023/04/07 05:18:16;;;;;;;99.80;47.67;;;;;;;;;;4323893;32;318379;-80
2023/04/07 05:20:44;;;;;;;53.60;31.93;;;;;;;;;;4308599;32;336112;-81
2023/04/07 05:23:11;;;;;;;54.00;24.10;;;;;;;;;;4320705;32;318580;-79
2023/04/07 05:25:38;;;;;;;29.87;17.17;;;;;;;;;;4311474;32;317624;-78
2023/04/07 05:28:05;;;;;;;25.90;16.83;;;;;;;;;;4319745;32;318499;-77
2023/04/07 05:30:31;;;;;;;26.87;18.63;;;;;;;;;;4311464;32;317713;-80
2023/04/07 05:33:00;;;;;;;28.10;20.43;;;;;;;;;;4332963;32;318771;-77
2023/04/07 05:35:27;;;;;;;26.30;18.40;;;;;;;;;;4324941;32;318164;-79
2023/04/07 05:37:53;;;;;;;30.73;17.60;;;;;;;;;;4334314;32;317829;-80
2023/04/07 05:40:20;;;;;;;36.13;20.93;;;;;;;;;;4335330;32;326302;-79
2023/04/07 05:42:47;;;;;;;29.17;20.50;;;;;;;;;;4325652;32;317787;-78
2023/04/07 05:45:14;;;;;;;33.00;21.87;;;;;;;;;;4335549;32;318540;-85
2023/04/07 05:47:41;;;;;;;34.37;20.23;;;;;;;;;;4315522;32;317592;-81
2023/04/07 05:50:12;;;;;;;18.17;13.93;;;;;;;;;;4334418;32;317519;-84
2023/04/07 05:52:39;;;;;;;25.40;15.47;;;;;;;;;;4324758;32;318422;-81
2023/04/07 05:55:07;;;;;;;24.03;13.27;;;;;;;;;;4335274;32;318391;-81
2023/04/07 05:57:34;;;;;;;26.67;14.87;;;;;;;;;;4325809;32;318314;-78
2023/04/07 06:00:03;;;;;;;19.47;14.57;;;;;;;;;;4335253;32;318774;-81
2023/04/07 06:02:30;;;;;;;23.67;15.07;;;;;;;;;;4323692;32;318312;-79
2023/04/07 06:04:56;;;;;;;23.37;17.00;;;;;;;;;;4333896;32;317620;-80
2023/04/07 06:07:25;;;;;;;25.87;14.43;;;;;;;;;;4334299;32;317916;-78
2023/04/07 06:09:51;;;;;;;29.77;18.20;;;;;;;;;;4321978;32;389004;-79
2023/04/07 06:12:18;;;;;;;29.87;16.97;;;;;;;;;;4333756;32;318387;-81
2023/04/07 06:14:51;;;;;;;28.33;19.40;;;;;;;;;;4305143;32;317449;-80
2023/04/07 06:17:19;;;;;;;28.77;20.00;;;;;;;;;;4318878;32;317364;-81
2023/04/07 06:19:45;;;;;;;31.23;19.87;;;;;;;;;;4309487;32;318398;-80
2023/04/07 06:22:12;;;;;;;44.23;21.60;;;;;;;;;;4319646;32;318266;-82
2023/04/07 06:24:41;;;;;;;36.93;20.90;;;;;;;;;;4316156;32;318415;-80
2023/04/07 06:27:07;;;;;;;48.10;25.37;;;;;;;;;;4332826;32;328796;-79
2023/04/07 06:29:35;;;;;;;45.80;26.07;;;;;;;;;;4324603;32;360008;-79
2023/04/07 06:32:02;;;;;;;41.30;18.77;;;;;;;;;;4335818;32;317499;-80
2023/04/07 06:34:29;;;;;;;22.97;15.33;;;;;;;;;;4327280;32;318074;-80
2023/04/07 06:36:56;;;;;;;20.67;14.30;;;;;;;;;;4342406;32;317646;-79
2023/04/07 06:39:25;;;;;;;21.60;15.13;;;;;;;;;;4342218;32;318599;-80
2023/04/07 06:41:53;;;;;;;26.10;18.63;;;;;;;;;;4326792;32;417439;-79
2023/04/07 06:44:20;;;;;;;35.53;20.83;;;;;;;;;;4337878;32;318061;-78
2023/04/07 06:46:49;;;;;;;37.27;21.10;;;;;;;;;;4326159;32;317547;-79
2023/04/07 06:49:16;;;;;;;30.27;18.80;;;;;;;;;;4335136;32;318246;-81
2023/04/07 06:51:43;;;;;;;33.63;21.13;;;;;;;;;;4325909;32;318277;-80
2023/04/07 06:54:12;;;;;;;22.97;16.27;;;;;;;;;;4327007;32;318308;-77
2023/04/07 06:56:42;;;;;;;23.13;17.27;;;;;;;;;;4315871;32;318536;-79
2023/04/07 06:59:11;;;;;;;36.83;18.73;;;;;;;;;;4320919;32;318179;-79
2023/04/07 07:01:39;;;;;;;28.70;19.43;;;;;;;;;;4309752;32;326534;-80
2023/04/07 07:04:05;;;;;;;29.90;19.23;;;;;;;;;;4317884;32;318604;-79
2023/04/07 07:06:33;;;;;;;34.87;19.23;;;;;;;;;;4309532;32;318278;-80
2023/04/07 07:09:01;;;;;;;25.47;16.97;;;;;;;;;;4316431;32;317511;-79
2023/04/07 07:11:28;;;;;;;20.40;13.17;;;;;;;;;;4322904;32;368029;-80
2023/04/07 07:13:55;;;;;;;26.07;16.30;;;;;;;;;;4334888;32;317404;-81
2023/04/07 07:16:23;;;;;;;23.33;14.37;;;;;;;;;;4334233;32;317776;-78
2023/04/07 07:18:50;;;;;;;19.50;13.97;;;;;;;;;;4324227;32;318313;-79
2023/04/07 07:21:18;;;;;;;23.90;12.30;;;;;;;;;;4335247;32;318327;-79
2023/04/07 07:23:47;;;;;;;17.77;10.60;;;;;;;;;;4324346;32;357227;-77
2023/04/07 07:26:14;;;;;;;20.43;11.33;;;;;;;;;;4318042;32;317224;-77
2023/04/07 07:28:41;;;;;;;15.63;10.40;;;;;;;;;;4315956;32;317988;-78
2023/04/07 07:31:11;;;;;;;16.30;11.07;;;;;;;;;;4328554;32;317438;-78
2023/04/07 07:33:42;;;;;;;21.13;10.90;;;;;;;;;;4325198;32;318192;-80
2023/04/07 07:36:10;;;;;;;14.87;11.03;;;;;;;;;;4334156;32;318276;-79
2023/04/07 07:38:36;;;;;;;16.40;9.47;;;;;;;;;;4324010;32;318248;-81
2023/04/07 07:41:03;;;;;;;12.97;10.00;;;;;;;;;;4325688;32;354688;-80
2023/04/07 07:43:30;;;;;;;15.83;10.00;;;;;;;;;;4324719;32;318329;-78
2023/04/07 07:45:58;;;;;;;19.13;11.73;;;;;;;;;;4333596;32;317698;-85
2023/04/07 07:48:25;;;;;;;16.93;10.80;;;;;;;;;;4335638;32;317351;-79
2023/04/07 07:50:55;;;;;;;18.17;10.33;;;;;;;;;;4323460;32;418880;-80
2023/04/07 07:53:22;;;;;;;27.37;14.43;;;;;;;;;;4336776;32;317931;-81
2023/04/07 07:55:49;;;;;;;14.90;11.17;;;;;;;;;;4328035;32;318319;-83
2023/04/07 07:58:17;;;;;;;22.30;12.10;;;;;;;;;;4340003;32;318029;-79
2023/04/07 08:00:44;;;;;;;17.43;11.10;;;;;;;;;;4326016;32;318294;-79
2023/04/07 08:03:10;;;;;;;16.27;11.30;;;;;;;;;;4335648;32;319262;-81
2023/04/07 08:05:37;;;;;;;12.07;9.80;;;;;;;;;;4323857;32;325309;-80
2023/04/07 08:08:06;;;;;;;14.40;9.90;;;;;;;;;;4321789;32;317547;-79
2023/04/07 08:10:33;;;;;;;16.27;9.37;;;;;;;;;;4310498;32;317629;-81
2023/04/07 08:13:00;;;;;;;19.27;10.03;;;;;;;;;;4320407;32;317839;-79
2023/04/07 08:15:26;;;;;;;15.67;11.57;;;;;;;;;;4309669;32;318587;-81
2023/04/07 08:17:53;;;;;;;14.33;9.20;;;;;;;;;;4321450;32;339860;-81
2023/04/07 08:20:20;;;;;;;22.73;11.30;;;;;;;;;;4323808;32;318123;-96
2023/04/07 08:22:47;;;;;;;21.63;11.10;;;;;;;;;;4315424;32;319236;-79
2023/04/07 08:25:15;;;;;;;18.17;11.57;;;;;;;;;;4354749;32;319181;-83
2023/04/07 08:27:42;;;;;;;14.93;10.50;;;;;;;;;;4327937;32;319488;-80
2023/04/07 08:30:09;;;;;;;15.13;11.17;;;;;;;;;;4336065;32;319657;-80
2023/04/07 08:32:37;;;;;;;13.73;8.83;;;;;;;;;;4325681;32;318888;-80
2023/04/07 08:35:04;;;;;;;13.93;10.43;;;;;;;;;;4335069;32;318230;-81
2023/04/07 08:37:31;;;;;;;18.37;11.23;;;;;;;;;;4325627;32;319552;-80
2023/04/07 08:39:58;;;;;;;15.50;10.13;;;;;;;;;;4336648;32;318575;-85
2023/04/07 08:42:30;;;;;;;18.83;10.97;;;;;;;;;;4335121;32;319167;-79
2023/04/07 08:45:01;;;;;;;25.07;11.73;;;;;;;;;;4315773;32;418065;-84
2023/04/07 08:47:30;;;;;;;9.53;7.70;;;;;;;;;;4325465;32;319250;-79
2023/04/07 08:50:02;;;;;;;15.00;7.47;;;;;;;;;;4336591;32;317359;-83
2023/04/07 08:52:35;;;;;;;11.40;7.80;;;;;;;;;;4327358;32;317609;-84
2023/04/07 08:55:05;;;;;;;12.10;7.87;;;;;;;;;;4335489;32;317848;-81
2023/04/07 08:57:34;;;;;;;12.80;7.70;;;;;;;;;;4326443;32;317738;-79
2023/04/07 09:00:04;;;;;;;11.17;8.20;;;;;;;;;;4333069;32;316822;-85
2023/04/07 09:02:33;;;;;;;10.73;6.97;;;;;;;;;;4320357;32;317087;-80
2023/04/07 09:05:01;;;;;;;12.80;6.93;;;;;;;;;;4321121;32;318357;-83
2023/04/07 09:07:28;;;;;;;13.67;7.30;;;;;;;;;;4310334;32;318528;-84
2023/04/07 09:09:56;;;;;;;8.00;6.33;;;;;;;;;;4320897;32;318306;-83
2023/04/07 09:12:22;;;;;;;11.17;6.03;;;;;;;;;;4320890;32;325518;-80
2023/04/07 09:14:50;;;;;;;10.73;6.97;;;;;;;;;;4310878;32;318335;-84
2023/04/07 09:17:20;;;;;;;13.90;6.87;;;;;;;;;;4320159;32;317766;-82
2023/04/07 09:19:47;;;;;;;14.10;7.47;;;;;;;;;;4311428;32;318729;-81
2023/04/07 09:22:14;;;;;;;10.77;6.10;;;;;;;;;;4332332;32;318290;-79
2023/04/07 09:24:42;;;;;;;10.40;7.20;;;;;;;;;;4325326;32;318168;-77
2023/04/07 09:27:13;;;;;;;9.50;6.33;;;;;;;;;;4328083;32;317512;-79
2023/04/07 09:29:42;;;;;;;9.73;5.57;;;;;;;;;;4324382;32;317522;-79
2023/04/07 09:32:11;;;;;;;9.33;6.23;;;;;;;;;;4335251;32;316408;-81
2023/04/07 09:34:39;;;;;;;8.93;6.50;;;;;;;;;;4324674;32;321240;-81
2023/04/07 09:37:08;;;;;;;13.13;7.57;;;;;;;;;;4322435;32;316504;-79
2023/04/07 09:39:48;;;;;;;10.07;6.53;;;;;;;;;;4309436;32;318353;-81
2023/04/07 09:42:15;;;;;;;11.13;6.90;;;;;;;;;;4320083;32;318312;-81
2023/04/07 09:44:42;;;;;;;12.30;5.93;;;;;;;;;;4304800;32;327167;-81
2023/04/07 09:47:12;;;;;;;9.67;6.13;;;;;;;;;;4329088;32;317659;-79
2023/04/07 09:49:51;;;;;;;6.83;5.77;;;;;;;;;;4310345;32;318189;-81
2023/04/07 09:52:19;;;;;;;13.23;6.30;;;;;;;;;;4312244;32;316762;-81
2023/04/07 09:54:46;;;;;;;8.30;5.93;;;;;;;;;;4310501;32;318337;-81
2023/04/07 09:57:13;;;;;;;10.50;6.70;;;;;;;;;;4320875;32;316528;-81
2023/04/07 09:59:43;;;;;;;9.40;6.60;;;;;;;;;;4310523;32;318128;-80
2023/04/07 10:02:12;;;;;;;10.97;6.40;;;;;;;;;;4319334;33;317312;-80
2023/04/07 10:04:39;;;;;;;12.37;8.00;;;;;;;;;;4309405;33;336807;-81
2023/04/07 10:07:06;;;;;;;9.70;6.07;;;;;;;;;;4317405;33;318734;-81
2023/04/07 10:09:33;;;;;;;13.80;6.00;;;;;;;;;;4309702;32;316769;-79
2023/04/07 10:12:00;;;;;;;8.33;5.57;;;;;;;;;;4318681;33;318738;-77
2023/04/07 10:14:35;;;;;;;12.63;6.73;;;;;;;;;;4306887;33;317230;-79
2023/04/07 10:17:04;;;;;;;11.57;5.90;;;;;;;;;;4335245;32;318489;-79
2023/04/07 10:19:34;;;;;;;12.37;7.30;;;;;;;;;;4399673;32;319438;-81
2023/04/07 10:22:05;;;;;;;8.63;5.77;;;;;;;;;;4413576;32;317668;-80
2023/04/07 10:24:46;;;;;;;13.83;5.90;;;;;;;;;;4401327;32;355281;-79
2023/04/07 10:27:17;;;;;;;13.63;8.73;;;;;;;;;;4397294;32;317563;-80
2023/04/07 10:29:49;;;;;;;12.07;6.33;;;;;;;;;;4339270;32;317240;-79
2023/04/07 10:32:16;;;;;;;34.33;28.80;;;;;;;;;;4343905;32;317415;-77
2023/04/07 10:35:01;;;;;;;9.17;6.40;;;;;;;;;;4329166;32;319339;-79
2023/04/07 10:37:28;;;;;;;13.37;6.33;;;;;;;;;;4311141;32;317253;-80
2023/04/07 10:40:30;;;;;;;9.03;5.83;;;;;;;;;;4320478;32;317823;-83
2023/04/07 10:43:00;;;;;;;209.77;77.60;;;;;;;;;;4307958;32;417361;-77
2023/04/07 10:46:01;;;;;;;40.53;20.87;;;;;;;;;;4310126;32;319760;-78
2023/04/07 10:48:31;;;;;;;11.00;7.10;;;;;;;;;;4310310;32;319596;-78
2023/04/07 10:51:18;;;;;;;30.20;12.10;;;;;;;;;;4319752;32;317401;-77
2023/04/07 10:54:19;;;;;;;10.07;6.73;;;;;;;;;;4309525;32;319284;-77
2023/04/07 10:57:20;;;;;;;6.77;5.23;;;;;;;;;;4308047;32;318274;-77
2023/04/07 11:00:15;;;;;;;72.27;65.43;;;;;;;;;;4309825;32;335485;-78
2023/04/07 11:02:42;;;;;;;9.30;5.87;;;;;;;;;;4309488;32;319270;-77
2023/04/07 11:05:20;;;;;;;11.43;5.87;;;;;;;;;;4320170;32;317164;-77
2023/04/07 11:07:56;;;;;;;7.70;5.90;;;;;;;;;;4309588;32;317750;-77
2023/04/07 11:10:23;;;;;;;27.27;19.73;;;;;;;;;;4319715;32;316396;-76
2023/04/07 11:13:09;;;;;;;17.57;14.20;;;;;;;;;;4309055;32;319376;-76
2023/04/07 11:15:36;;;;;;;20.73;14.50;;;;;;;;;;4309057;32;344503;-77
2023/04/07 11:18:08;;;;;;;28.07;15.50;;;;;;;;;;4321561;32;319266;-76
2023/04/07 11:20:46;;;;;;;24.70;13.93;;;;;;;;;;4312725;32;319439;-77
2023/04/07 11:23:15;;;;;;;13.00;9.53;;;;;;;;;;4323059;32;319390;-78
2023/04/07 11:25:44;;;;;;;17.00;11.77;;;;;;;;;;4314752;32;330787;-76
2023/04/07 11:28:12;;;;;;;54.80;27.03;;;;;;;;;;4322638;32;319417;-77
2023/04/07 11:30:39;;;;;;;52.83;25.87;;;;;;;;;;4303763;32;326236;-78
2023/04/07 11:33:07;;;;;;;12.07;7.90;;;;;;;;;;4325023;32;319341;-80
2023/04/07 11:35:36;;;;;;;20.27;8.53;;;;;;;;;;4310800;32;318217;-78
2023/04/07 11:38:04;;;;;;;14.77;8.60;;;;;;;;;;4322574;32;318233;-78
2023/04/07 11:40:37;;;;;;;7.23;6.37;;;;;;;;;;4309061;32;358560;-77
2023/04/07 11:43:16;;;;;;;7.90;6.17;;;;;;;;;;4323191;32;319252;-78
2023/04/07 11:45:43;;;;;;;26.57;5.97;;;;;;;;;;4325608;32;317252;-78
2023/04/07 11:48:29;;;;;;;10.67;6.63;;;;;;;;;;4334602;32;318447;-81
2023/04/07 11:50:56;;;;;;;9.67;7.73;;;;;;;;;;4321741;32;417688;-82
2023/04/07 11:53:27;;;;;;;11.97;7.77;;;;;;;;;;4334262;32;316575;-79
2023/04/07 11:56:08;;;;;;;28.57;14.33;;;;;;;;;;4322789;32;417404;-79
2023/04/07 11:58:35;;;;;;;10.03;6.83;;;;;;;;;;4322117;32;319417;-77
2023/04/07 12:01:07;;;;;;;12.00;7.30;;;;;;;;;;4334081;32;318356;-78
2023/04/07 12:03:35;;;;;;;31.43;15.87;;;;;;;;;;4316130;32;357537;-78
2023/04/07 12:06:02;;;;;;;25.17;12.33;;;;;;;;;;4332986;32;319224;-79
2023/04/07 12:08:44;;;;;;;89.33;40.27;;;;;;;;;;4325863;32;319006;-78
2023/04/07 12:11:13;;;;;;;12.67;8.03;;;;;;;;;;4335827;32;318834;-78
2023/04/07 12:13:40;;;;;;;13.43;8.73;;;;;;;;;;4325918;32;318201;-78
2023/04/07 12:16:07;;;;;;;39.47;17.77;;;;;;;;;;4335302;32;317431;-78
2023/04/07 12:18:35;;;;;;;40.70;16.53;;;;;;;;;;4325750;32;318720;-78
2023/04/07 12:21:02;;;;;;;34.80;13.33;;;;;;;;;;4335629;32;319367;-78
2023/04/07 12:23:29;;;;;;;12.77;9.33;;;;;;;;;;4325980;32;319357;-80
2023/04/07 12:25:58;;;;;;;14.40;9.87;;;;;;;;;;4335820;32;318078;-78
2023/04/07 12:28:27;;;;;;;13.47;8.07;;;;;;;;;;4335021;32;317724;-78
2023/04/07 12:30:54;;;;;;;8.47;6.70;;;;;;;;;;4314915;32;417740;-78
2023/04/07 12:33:21;;;;;;;12.80;8.80;;;;;;;;;;4335640;32;317112;-77
2023/04/07 12:35:49;;;;;;;9.67;7.23;;;;;;;;;;4326566;32;317724;-77
2023/04/07 12:38:15;;;;;;;9.93;7.47;;;;;;;;;;4336861;32;317169;-77
2023/04/07 12:40:42;;;;;;;10.73;6.87;;;;;;;;;;4327153;32;317393;-79
2023/04/07 12:43:09;;;;;;;9.13;6.37;;;;;;;;;;4336497;32;318380;-79
2023/04/07 12:45:37;;;;;;;56.03;18.57;;;;;;;;;;4325428;32;316934;-78
2023/04/07 12:48:04;;;;;;;26.77;11.20;;;;;;;;;;4325802;32;319675;-77
2023/04/07 12:50:31;;;;;;;20.50;11.73;;;;;;;;;;4310408;32;319092;-78
2023/04/07 12:53:02;;;;;;;11.63;6.47;;;;;;;;;;4321187;32;333398;-80
2023/04/07 12:55:29;;;;;;;12.73;7.43;;;;;;;;;;4314301;32;324769;-80
2023/04/07 12:57:55;;;;;;;79.67;22.37;;;;;;;;;;4321363;32;318346;-80
2023/04/07 13:00:23;;;;;;;15.03;7.70;;;;;;;;;;4320855;32;318888;-78
2023/04/07 13:02:52;;;;;;;19.10;8.63;;;;;;;;;;4311650;32;318260;-78
2023/04/07 13:05:19;;;;;;;9.77;6.57;;;;;;;;;;4320464;32;317585;-79
2023/04/07 13:07:46;;;;;;;15.77;9.33;;;;;;;;;;4310657;32;317222;-80
2023/04/07 13:10:13;;;;;;;8.17;6.00;;;;;;;;;;4320675;32;318307;-78
2023/04/07 13:12:41;;;;;;;10.13;6.03;;;;;;;;;;4311943;32;317291;-77
2023/04/07 13:15:08;;;;;;;11.13;6.57;;;;;;;;;;4321174;32;317767;-78
2023/04/07 13:17:37;;;;;;;9.77;7.00;;;;;;;;;;4310440;32;318512;-77
2023/04/07 13:20:06;;;;;;;7.40;5.43;;;;;;;;;;4321227;32;326638;-77
2023/04/07 13:22:33;;;;;;;6.40;5.20;;;;;;;;;;4310349;32;316779;-78
2023/04/07 13:25:00;;;;;;;7.60;5.07;;;;;;;;;;4321086;32;316446;-76
2023/04/07 13:27:27;;;;;;;7.83;4.73;;;;;;;;;;4311737;32;317112;-78
2023/04/07 13:29:54;;;;;;;8.57;5.90;;;;;;;;;;4319912;32;317314;-79
2023/04/07 13:32:22;;;;;;;10.73;5.87;;;;;;;;;;4320886;32;317239;-78
2023/04/07 13:34:49;;;;;;;8.90;5.73;;;;;;;;;;4311557;32;318384;-79
2023/04/07 13:37:18;;;;;;;5.97;4.83;;;;;;;;;;4320754;32;317357;-78
2023/04/07 13:39:45;;;;;;;6.90;4.67;;;;;;;;;;4309965;32;332238;-77
2023/04/07 13:42:15;;;;;;;8.43;5.33;;;;;;;;;;4319507;32;316715;-79
2023/04/07 13:44:44;;;;;;;7.03;5.40;;;;;;;;;;4310093;32;316499;-78
2023/04/07 13:47:11;;;;;;;6.50;4.63;;;;;;;;;;4321119;33;317359;-77
2023/04/07 13:49:40;;;;;;;14.67;6.27;;;;;;;;;;4311554;32;317094;-78
2023/04/07 13:52:07;;;;;;;15.03;7.70;;;;;;;;;;4319819;33;318328;-78
2023/04/07 13:54:35;;;;;;;7.17;5.63;;;;;;;;;;4311515;32;318077;-79
2023/04/07 13:57:02;;;;;;;13.83;7.37;;;;;;;;;;4320849;33;329342;-80
2023/04/07 13:59:29;;;;;;;6.40;5.53;;;;;;;;;;4309585;32;374583;-78
2023/04/07 14:01:56;;;;;;;10.30;5.60;;;;;;;;;;4332712;32;357846;-79
2023/04/07 14:04:23;;;;;;;9.33;5.63;;;;;;;;;;4411770;32;318446;-78
2023/04/07 14:06:49;;;;;;;16.90;7.73;;;;;;;;;;4403177;32;317219;-80
2023/04/07 14:09:16;;;;;;;11.77;7.13;;;;;;;;;;4413332;32;317804;-79
2023/04/07 14:11:45;;;;;;;6.70;5.30;;;;;;;;;;4401648;32;318441;-79
2023/04/07 14:14:12;;;;;;;9.30;5.53;;;;;;;;;;4413886;32;316796;-77
2023/04/07 14:16:39;;;;;;;9.93;5.83;;;;;;;;;;4403493;32;317398;-79
2023/04/07 14:19:06;;;;;;;9.17;6.07;;;;;;;;;;4413895;32;317709;-78
2023/04/07 14:21:33;;;;;;;7.93;5.20;;;;;;;;;;4413845;32;318355;-78